Flight Number: EUR3054 Duration: 10:00
Departure: Amsterdam Schiphol (EHAM) at 07:30 Distance: 4322 Nm
Arrival: Salt Lake City Intl Airport (KSLC) at 17:30 Equipment: B747

Weather Information
Amsterdam Airport Schiphol, Netherlands (EHAM) 52-18N 004-46E -2M Nov 19, 2017 - 10:55 PM EST / 2017.11.20 0355 UTC
Wind: from the WSW (250 degrees) at 9 MPH (8 KT):0
Visibility: greater than 7 mile(s):0 Temperature: 44 F (7 C) Dew Point: 35 F (2 C) Relative Humidity: 70% Pressure (altimeter): 30.06 in. Hg (1018 hPa)
ob: EHAM 200355Z 25008KT CAVOK 07/02 Q1018 NOSIG cycle: 4
Sunrise: 07:16 Sunset: 15:37 (UTC)

SALT LAKE CITY INTERNATIONAL AIRPORT , UT, United States (KSLC) 40-47N 111-58W 1286M Nov 19, 2017 - 10:54 PM EST / 2017.11.20 0354 UTC
Wind: from the NNE (020 degrees) at 7 MPH (6 KT):0
Visibility: 10 mile(s):0
Sky conditions: mostly cloudy Temperature: 36.0 F (2.2 C) Dew Point: 30.9 F (-0.6 C) Relative Humidity: 81% Pressure (altimeter): 30.1 in. Hg (1019 hPa)
ob: KSLC 200354Z 02006KT 10SM BKN200 02/M01 A3010 RMK AO2 SLP198 T00221006 VISNO NW RNWY cycle: 4
Sunrise: 14:25 Sunset: 00:02 (UTC)

TAF:2017/11/20 03:51 TAF AMD KSLC 200249Z 2003/2106 35005KT P6SM BKN250 FM200400 15006KT P6SM BKN250 FM201300 15010KT P6SM SCT080 BKN120 FM201900 34007KT P6SM SCT050 BKN070 FM210300 15006KT P6SM BKN070

Previous Pireps for this route
Date Aircraft Flight time Fuel used Landing rate On time
2015-01-27B74710.37206753-232Charter
2016-10-22B74710,07198276-194Yes
(pireps marked green are flown by you)

Route map